createdAt,value
2023-03-21T00:00:40.048Z,11.20
2023-03-21T00:03:07.839Z,11.13
2023-03-21T00:05:39.562Z,11.21
2023-03-21T00:08:07.027Z,11.19
2023-03-21T00:10:43.409Z,11.18
2023-03-21T00:13:13.371Z,11.10
2023-03-21T00:16:04.724Z,11.07
2023-03-21T00:18:41.811Z,11.08
2023-03-21T00:21:43.919Z,11.21
2023-03-21T00:24:02.825Z,11.08
2023-03-21T00:26:30.398Z,10.97
2023-03-21T00:28:58.355Z,10.87
2023-03-21T00:31:25.945Z,10.84
2023-03-21T00:33:53.212Z,10.88
2023-03-21T00:36:21.625Z,10.94
2023-03-21T00:38:48.947Z,10.98
2023-03-21T00:41:26.285Z,10.87
2023-03-21T00:44:04.112Z,10.81
2023-03-21T00:46:42.789Z,10.88
2023-03-21T00:49:12.791Z,10.82
2023-03-21T00:51:43.712Z,10.82
2023-03-21T00:54:13.035Z,10.74
2023-03-21T00:56:41.559Z,10.69
2023-03-21T00:59:08.954Z,10.60
2023-03-21T01:01:37.330Z,10.49
2023-03-21T01:04:11.145Z,10.40
2023-03-21T01:06:40.486Z,10.41
2023-03-21T01:09:13.267Z,10.30
2023-03-21T01:11:42.168Z,10.19
2023-03-21T01:14:25.207Z,10.28
2023-03-21T01:16:54.572Z,10.26
2023-03-21T01:19:40.712Z,10.27
2023-03-21T01:22:13.871Z,10.23
2023-03-21T01:24:52.491Z,10.28
2023-03-21T01:27:22.934Z,10.34
2023-03-21T01:29:50.380Z,10.40
2023-03-21T01:32:17.777Z,10.41
2023-03-21T01:34:45.493Z,10.45
2023-03-21T01:37:12.900Z,10.42
2023-03-21T01:39:46.501Z,10.41
2023-03-21T01:42:14.272Z,10.40
2023-03-21T01:44:56.806Z,10.38
2023-03-21T01:47:26.168Z,10.38
2023-03-21T01:50:17.256Z,10.25
2023-03-21T01:52:56.864Z,10.21
2023-03-21T01:55:28.617Z,10.29
2023-03-21T01:58:06.862Z,10.25
2023-03-21T02:00:55.366Z,10.38
2023-03-21T02:03:38.630Z,10.35
2023-03-21T02:06:43.966Z,10.18
2023-03-21T02:09:44.601Z,9.95
2023-03-21T02:12:18.736Z,9.98
2023-03-21T02:14:49.641Z,10.01
2023-03-21T02:18:02.417Z,10.01
2023-03-21T02:21:13.293Z,9.94
2023-03-21T02:24:42.687Z,9.93
2023-03-21T02:27:21.988Z,9.89
2023-03-21T02:30:29.397Z,9.95
2023-03-21T02:33:16.062Z,9.90
2023-03-21T02:36:13.564Z,9.96
2023-03-21T02:38:56.166Z,9.92
2023-03-21T02:41:49.555Z,9.79
2023-03-21T02:44:50.422Z,9.68
2023-03-21T02:47:26.881Z,9.58
2023-03-21T02:50:12.420Z,9.60
2023-03-21T02:52:44.403Z,9.62
2023-03-21T02:55:16.575Z,9.50
2023-03-21T02:57:53.909Z,9.44
2023-03-21T03:00:29.662Z,9.35
2023-03-21T03:03:08.832Z,9.33
2023-03-21T03:05:47.158Z,9.39
2023-03-21T03:08:59.783Z,9.37
2023-03-21T03:11:39.239Z,9.38
2023-03-21T03:14:53.126Z,9.30
2023-03-21T03:17:40.335Z,9.37
2023-03-21T03:20:16.162Z,9.45
2023-03-21T03:22:57.572Z,9.37
2023-03-21T03:25:44.215Z,9.37
2023-03-21T03:28:21.383Z,9.42
2023-03-21T03:31:07.572Z,9.46
2023-03-21T03:33:46.584Z,9.26
2023-03-21T03:36:33.567Z,9.36
2023-03-21T03:39:11.348Z,9.34
2023-03-21T03:44:38.760Z,9.37
2023-03-21T03:48:06.185Z,9.52
2023-03-21T03:50:51.111Z,9.47
2023-03-21T03:53:32.756Z,9.54
2023-03-21T03:56:01.551Z,9.51
2023-03-21T03:58:44.629Z,9.44
2023-03-21T04:01:15.444Z,9.22
2023-03-21T04:03:50.439Z,9.17
2023-03-21T04:06:19.940Z,9.07
2023-03-21T04:08:48.950Z,9.10
2023-03-21T04:11:16.551Z,9.06
2023-03-21T04:13:48.566Z,9.06
2023-03-21T04:16:23.323Z,9.07
2023-03-21T04:18:52.463Z,9.04
2023-03-21T04:21:21.628Z,9.10
2023-03-21T04:23:49.192Z,9.15
2023-03-21T04:26:17.513Z,9.04
2023-03-21T04:29:00.826Z,9.01
2023-03-21T04:31:50.011Z,8.95
2023-03-21T04:34:18.160Z,9.07
2023-03-21T04:36:50.906Z,9.12
2023-03-21T04:39:19.584Z,9.12
2023-03-21T04:41:50.029Z,9.07
2023-03-21T04:44:18.542Z,9.05
2023-03-21T04:46:46.912Z,8.95
2023-03-21T04:49:15.569Z,8.98
2023-03-21T04:51:45.410Z,8.99
2023-03-21T04:54:18.664Z,8.92
2023-03-21T04:56:46.199Z,8.78
2023-03-21T04:59:16.668Z,8.87
2023-03-21T05:01:44.952Z,8.72
2023-03-21T05:04:14.256Z,8.71
2023-03-21T05:06:45.180Z,8.71
2023-03-21T05:09:13.255Z,8.81
2023-03-21T05:11:41.648Z,8.84
2023-03-21T05:14:15.401Z,8.97
2023-03-21T05:16:55.477Z,8.95
2023-03-21T05:19:34.799Z,8.90
2023-03-21T05:22:06.339Z,8.85
2023-03-21T05:24:33.948Z,8.89
2023-03-21T05:27:03.600Z,8.88
2023-03-21T05:29:38.423Z,8.88
2023-03-21T05:32:07.163Z,8.87
2023-03-21T05:34:34.439Z,8.91
2023-03-21T05:37:02.374Z,8.97
2023-03-21T05:39:50.891Z,8.97
2023-03-21T05:42:25.164Z,8.98
2023-03-21T05:44:52.946Z,9.10
2023-03-21T05:47:25.652Z,9.21
2023-03-21T05:49:54.713Z,9.33
2023-03-21T05:52:23.520Z,9.76
2023-03-21T05:54:51.258Z,10.38
2023-03-21T05:57:22.667Z,10.70
2023-03-21T05:59:57.887Z,10.98
2023-03-21T06:02:25.309Z,11.47
2023-03-21T06:04:53.648Z,11.32
2023-03-21T06:07:22.096Z,10.59
2023-03-21T06:09:50.513Z,10.25
2023-03-21T06:12:18.127Z,10.33
2023-03-21T06:15:01.206Z,11.37
2023-03-21T06:17:45.411Z,13.05
2023-03-21T06:20:13.425Z,13.39
2023-03-21T06:22:46.391Z,14.30
2023-03-21T06:25:13.939Z,14.82
2023-03-21T06:27:41.371Z,14.81
2023-03-21T06:30:09.400Z,14.98
2023-03-21T06:32:45.704Z,15.72
2023-03-21T06:35:17.093Z,16.07
2023-03-21T06:37:46.152Z,16.43
2023-03-21T06:40:14.043Z,16.63
2023-03-21T06:42:41.712Z,16.92
2023-03-21T06:45:11.613Z,17.17
2023-03-21T06:47:39.017Z,17.52
2023-03-21T06:50:13.171Z,17.84
2023-03-21T06:52:42.685Z,17.88
2023-03-21T06:55:13.185Z,17.91
2023-03-21T06:57:40.751Z,18.02
2023-03-21T07:00:10.123Z,18.74
2023-03-21T07:02:42.525Z,18.83
2023-03-21T07:05:15.533Z,18.69
2023-03-21T07:07:43.997Z,19.09
2023-03-21T07:10:11.811Z,19.15
2023-03-21T07:12:50.466Z,19.78
2023-03-21T07:15:23.953Z,19.77
2023-03-21T07:17:52.436Z,20.94
2023-03-21T07:20:19.829Z,21.34
2023-03-21T07:22:47.194Z,21.08
2023-03-21T07:25:17.336Z,21.31
2023-03-21T07:27:44.696Z,21.49
2023-03-21T07:30:13.393Z,21.85
2023-03-21T07:32:40.819Z,22.12
2023-03-21T07:35:11.918Z,22.22
2023-03-21T07:37:40.856Z,22.07
2023-03-21T07:40:10.334Z,22.45
2023-03-21T07:42:41.717Z,22.93
2023-03-21T07:45:12.841Z,22.80
2023-03-21T07:47:40.324Z,23.11
2023-03-21T07:50:08.333Z,23.61
2023-03-21T07:52:35.809Z,23.55
2023-03-21T07:55:03.626Z,24.40
2023-03-21T07:57:30.986Z,24.37
2023-03-21T07:59:58.514Z,23.74
2023-03-21T08:02:26.250Z,24.51
2023-03-21T08:04:53.674Z,23.39
2023-03-21T08:07:21.046Z,23.57
2023-03-21T08:09:48.440Z,23.90
2023-03-21T08:12:16.887Z,24.18
2023-03-21T08:14:44.481Z,23.87
2023-03-21T08:17:11.909Z,24.06
2023-03-21T08:19:39.260Z,23.69
2023-03-21T08:22:06.770Z,24.02
2023-03-21T08:24:34.326Z,23.99
2023-03-21T08:27:02.020Z,24.50
2023-03-21T08:29:29.512Z,25.03
2023-03-21T08:31:58.064Z,24.49
2023-03-21T08:34:26.423Z,25.02
2023-03-21T08:36:54.542Z,25.18
2023-03-21T08:39:22.551Z,25.44
2023-03-21T08:41:49.939Z,23.79
2023-03-21T08:44:17.398Z,25.67
2023-03-21T08:46:44.732Z,25.36
2023-03-21T08:49:12.703Z,25.32
2023-03-21T08:51:41.236Z,25.40
2023-03-21T08:54:17.514Z,25.42
2023-03-21T08:56:44.821Z,26.07
2023-03-21T08:59:12.348Z,26.47
2023-03-21T09:01:39.810Z,26.40
2023-03-21T09:04:10.842Z,26.76
2023-03-21T09:06:40.999Z,26.55
2023-03-21T09:09:09.341Z,25.19
2023-03-21T09:11:36.741Z,26.05
2023-03-21T09:14:04.360Z,27.11
2023-03-21T09:16:32.599Z,26.19
2023-03-21T09:19:00.069Z,26.44
2023-03-21T09:21:28.316Z,26.58
2023-03-21T09:23:58.829Z,26.53
2023-03-21T09:26:27.787Z,25.92
2023-03-21T09:28:56.271Z,26.31
2023-03-21T09:31:24.970Z,26.47
2023-03-21T09:33:53.319Z,27.09
2023-03-21T09:36:25.017Z,26.36
2023-03-21T09:38:53.140Z,26.01
2023-03-21T09:41:26.329Z,25.98
2023-03-21T09:44:24.766Z,26.33
2023-03-21T09:47:22.290Z,26.38
2023-03-21T09:50:07.573Z,27.22
2023-03-21T09:52:50.691Z,26.86
2023-03-21T09:55:22.616Z,27.01
2023-03-21T09:58:16.684Z,27.48
2023-03-21T10:00:49.091Z,26.98
2023-03-21T10:03:26.252Z,27.34
2023-03-21T10:06:01.594Z,26.70
2023-03-21T10:08:36.616Z,26.35
2023-03-21T10:11:16.145Z,26.77
2023-03-21T10:14:07.678Z,27.09
2023-03-21T10:16:40.842Z,26.58
2023-03-21T10:19:13.290Z,26.01
2023-03-21T10:22:03.355Z,26.96
2023-03-21T10:24:34.639Z,26.93
2023-03-21T10:27:03.539Z,27.04
2023-03-21T10:29:38.708Z,27.32
2023-03-21T10:32:09.876Z,27.26
2023-03-21T10:37:25.663Z,26.65
2023-03-21T10:39:55.337Z,26.49
2023-03-21T10:42:25.715Z,26.20
2023-03-21T10:44:56.623Z,26.58
2023-03-21T10:47:32.598Z,26.42
2023-03-21T10:50:10.415Z,26.25
2023-03-21T10:52:51.453Z,26.03
2023-03-21T10:55:22.046Z,26.30
2023-03-21T10:57:55.120Z,26.52
2023-03-21T11:00:27.534Z,26.15
2023-03-21T11:02:55.617Z,26.08
2023-03-21T11:05:35.002Z,25.94
2023-03-21T11:08:18.189Z,26.40
2023-03-21T11:10:59.690Z,26.20
2023-03-21T11:13:36.642Z,25.93
2023-03-21T11:16:06.152Z,26.53
2023-03-21T11:18:33.574Z,26.73
2023-03-21T11:21:06.668Z,26.33
2023-03-21T11:23:39.865Z,25.87
2023-03-21T11:26:18.492Z,26.66
2023-03-21T11:28:46.456Z,25.35
2023-03-21T11:31:13.820Z,25.85
2023-03-21T11:33:59.992Z,26.19
2023-03-21T11:36:33.894Z,26.12
2023-03-21T11:39:32.379Z,25.03
2023-03-21T11:42:00.117Z,25.05
2023-03-21T11:44:33.897Z,25.02
2023-03-21T11:47:01.942Z,24.29
2023-03-21T11:49:29.372Z,24.19
2023-03-21T11:52:14.091Z,24.02
2023-03-21T11:55:00.724Z,25.62
2023-03-21T11:57:50.034Z,24.78
2023-03-21T12:00:29.301Z,24.52
2023-03-21T12:03:41.425Z,24.87
2023-03-21T12:06:56.155Z,24.71
2023-03-21T12:09:37.407Z,24.69
2023-03-21T12:12:38.954Z,25.46
2023-03-21T12:15:12.682Z,25.07
2023-03-21T12:17:54.447Z,24.62
2023-03-21T12:20:30.754Z,24.83
2023-03-21T12:23:16.619Z,24.35
2023-03-21T12:26:02.710Z,24.65
2023-03-21T12:28:56.877Z,24.73
2023-03-21T12:31:46.256Z,24.59
2023-03-21T12:34:24.675Z,24.83
2023-03-21T12:37:17.573Z,24.80
2023-03-21T12:39:48.605Z,24.36
2023-03-21T12:42:50.984Z,24.77
2023-03-21T12:45:20.882Z,24.49
2023-03-21T12:47:53.352Z,23.38
2023-03-21T12:50:37.457Z,23.94
2023-03-21T12:53:24.090Z,24.41
2023-03-21T12:55:52.250Z,24.53
2023-03-21T12:58:25.989Z,25.20
2023-03-21T13:00:56.234Z,24.58
2023-03-21T13:03:39.889Z,24.63
2023-03-21T13:06:10.927Z,23.89
2023-03-21T13:08:49.314Z,24.37
2023-03-21T13:11:21.758Z,24.64
2023-03-21T13:14:01.209Z,24.47
2023-03-21T13:16:34.923Z,24.51
2023-03-21T13:19:29.309Z,24.39
2023-03-21T13:22:18.996Z,24.47
2023-03-21T13:24:48.589Z,24.20
2023-03-21T13:27:21.368Z,24.27
2023-03-21T13:29:54.510Z,23.92
2023-03-21T13:32:27.871Z,24.36
2023-03-21T13:34:58.080Z,24.08
2023-03-21T13:37:31.084Z,24.26
2023-03-21T13:40:12.902Z,23.79
2023-03-21T13:42:50.194Z,23.80
2023-03-21T13:45:44.871Z,24.15
2023-03-21T13:48:28.540Z,24.08
2023-03-21T13:51:06.572Z,24.08
2023-03-21T13:53:43.753Z,23.88
2023-03-21T13:56:16.987Z,24.05
2023-03-21T13:58:44.386Z,23.19
2023-03-21T14:01:29.778Z,23.67
2023-03-21T14:04:06.494Z,23.00
2023-03-21T14:06:55.046Z,23.03
2023-03-21T14:09:31.137Z,23.02
2023-03-21T14:12:07.121Z,23.18
2023-03-21T14:14:41.939Z,23.66
2023-03-21T14:17:22.080Z,23.92
2023-03-21T14:20:16.413Z,23.74
2023-03-21T14:22:47.867Z,23.51
2023-03-21T14:25:17.586Z,23.91
2023-03-21T14:27:53.677Z,23.50
2023-03-21T14:30:34.127Z,22.57
2023-03-21T14:33:23.832Z,22.77
2023-03-21T14:35:51.378Z,22.72
2023-03-21T14:38:27.681Z,23.02
2023-03-21T14:40:58.332Z,22.56
2023-03-21T14:43:26.820Z,22.50
2023-03-21T14:45:57.033Z,22.63
2023-03-21T14:48:35.253Z,22.62
2023-03-21T14:51:12.320Z,22.40
2023-03-21T14:53:42.498Z,22.88
2023-03-21T14:56:17.786Z,22.69
2023-03-21T14:58:47.492Z,22.20
2023-03-21T15:01:31.213Z,21.93
2023-03-21T15:04:01.270Z,22.01
2023-03-21T15:06:28.569Z,21.82
2023-03-21T15:08:57.357Z,21.88
2023-03-21T15:11:42.286Z,21.91
2023-03-21T15:14:14.627Z,22.00
2023-03-21T15:16:42.287Z,21.92
2023-03-21T15:19:16.780Z,21.66
2023-03-21T15:21:51.085Z,21.32
2023-03-21T15:24:26.382Z,21.50
2023-03-21T15:27:02.462Z,21.13
2023-03-21T15:29:30.275Z,21.37
2023-03-21T15:31:59.150Z,21.06
2023-03-21T15:34:30.744Z,21.10
2023-03-21T15:37:05.166Z,21.01
2023-03-21T15:39:36.120Z,20.89
2023-03-21T15:42:05.864Z,20.83
2023-03-21T15:44:35.171Z,20.68
2023-03-21T15:47:02.617Z,20.64
2023-03-21T15:49:33.906Z,20.77
2023-03-21T15:52:11.287Z,20.51
2023-03-21T15:54:44.777Z,20.63
2023-03-21T15:57:34.218Z,20.67
2023-03-21T16:00:15.130Z,20.42
2023-03-21T16:02:43.040Z,20.18
2023-03-21T16:05:28.492Z,20.25
2023-03-21T16:08:03.731Z,20.21
2023-03-21T16:10:34.152Z,20.16
2023-03-21T16:13:01.469Z,20.10
2023-03-21T16:15:29.313Z,20.12
2023-03-21T16:17:59.123Z,20.17
2023-03-21T16:20:32.682Z,20.35
2023-03-21T16:23:01.263Z,20.27
2023-03-21T16:25:31.076Z,20.31
2023-03-21T16:27:58.837Z,20.14
2023-03-21T16:30:26.266Z,19.94
2023-03-21T16:32:53.596Z,19.99
2023-03-21T16:35:23.436Z,19.96
2023-03-21T16:37:51.016Z,19.84
2023-03-21T16:40:28.120Z,19.78
2023-03-21T16:42:55.921Z,19.65
2023-03-21T16:45:23.615Z,19.59
2023-03-21T16:47:51.753Z,19.68
2023-03-21T16:50:43.021Z,19.47
2023-03-21T16:53:10.529Z,19.48
2023-03-21T16:55:38.917Z,19.48
2023-03-21T16:58:06.407Z,19.46
2023-03-21T17:00:33.888Z,19.36
2023-03-21T17:03:03.041Z,19.29
2023-03-21T17:05:30.837Z,19.19
2023-03-21T17:08:02.015Z,19.36
2023-03-21T17:10:31.078Z,19.29
2023-03-21T17:12:58.858Z,19.17
2023-03-21T17:15:26.214Z,18.98
2023-03-21T17:17:55.624Z,19.08
2023-03-21T17:20:28.721Z,19.07
2023-03-21T17:22:55.993Z,18.87
2023-03-21T17:25:23.450Z,18.82
2023-03-21T17:27:53.033Z,18.74
2023-03-21T17:30:30.917Z,18.56
2023-03-21T17:32:58.867Z,18.45
2023-03-21T17:35:27.534Z,18.34
2023-03-21T17:37:58.409Z,18.26
2023-03-21T17:40:28.878Z,18.15
2023-03-21T17:42:57.313Z,18.02
2023-03-21T17:45:25.432Z,17.83
2023-03-21T17:47:54.954Z,17.75
2023-03-21T17:50:27.805Z,17.75
2023-03-21T17:52:57.808Z,17.79
2023-03-21T17:55:25.232Z,17.88
2023-03-21T17:57:52.730Z,17.98
2023-03-21T18:00:23.818Z,18.01
2023-03-21T18:02:51.945Z,17.95
2023-03-21T18:05:21.571Z,17.88
2023-03-21T18:08:10.945Z,17.76
2023-03-21T18:10:39.922Z,17.64
2023-03-21T18:13:07.580Z,17.57
2023-03-21T18:15:37.575Z,17.48
2023-03-21T18:18:05.886Z,17.48
2023-03-21T18:23:21.400Z,17.66
2023-03-21T18:25:49.140Z,17.64
2023-03-21T18:28:20.517Z,17.67
2023-03-21T18:31:07.395Z,17.71
2023-03-21T18:33:37.871Z,17.57
2023-03-21T18:36:07.775Z,17.58
2023-03-21T18:38:36.585Z,17.44
2023-03-21T18:41:04.770Z,17.28
2023-03-21T18:44:04.642Z,17.18
2023-03-21T18:46:19.734Z,17.07
2023-03-21T18:48:47.981Z,17.02
2023-03-21T18:51:17.623Z,17.12
2023-03-21T18:53:45.684Z,17.18
2023-03-21T18:56:40.834Z,17.24
2023-03-21T18:59:01.171Z,17.12
2023-03-21T19:01:28.645Z,17.03
2023-03-21T19:04:20.025Z,16.97
2023-03-21T19:06:48.089Z,16.83
2023-03-21T19:09:16.017Z,16.78
2023-03-21T19:11:45.650Z,16.79
2023-03-21T19:14:15.541Z,16.72
2023-03-21T19:19:31.231Z,16.69
2023-03-21T19:21:58.762Z,16.66
2023-03-21T19:24:28.593Z,16.62
2023-03-21T19:26:56.429Z,16.59
2023-03-21T19:29:23.730Z,16.55
2023-03-21T19:31:51.686Z,16.55
2023-03-21T19:34:19.529Z,16.50
2023-03-21T19:36:51.604Z,16.44
2023-03-21T19:39:22.609Z,16.37
2023-03-21T19:41:51.726Z,16.34
2023-03-21T19:44:21.899Z,16.26
2023-03-21T19:46:51.069Z,16.26
2023-03-21T19:49:22.246Z,16.23
2023-03-21T19:51:49.901Z,16.16
2023-03-21T19:54:18.097Z,16.12
2023-03-21T19:56:48.159Z,16.09
2023-03-21T19:59:16.199Z,16.14
2023-03-21T20:01:48.816Z,16.10
2023-03-21T20:04:17.905Z,15.94
2023-03-21T20:06:45.699Z,15.96
2023-03-21T20:09:49.689Z,15.92
2023-03-21T20:12:01.432Z,15.96
2023-03-21T20:14:28.741Z,15.84
2023-03-21T20:16:57.224Z,15.90
2023-03-21T20:19:25.045Z,15.88
2023-03-21T20:21:58.868Z,15.86
2023-03-21T20:24:28.193Z,15.87
2023-03-21T20:26:56.267Z,15.75
2023-03-21T20:32:11.225Z,15.64
2023-03-21T20:34:39.337Z,15.58
2023-03-21T20:37:07.237Z,15.59
2023-03-21T20:39:34.743Z,15.48
2023-03-21T20:42:02.718Z,15.47
2023-03-21T20:47:18.713Z,15.08
2023-03-21T20:49:46.232Z,15.02
2023-03-21T20:52:54.397Z,15.16
2023-03-21T20:55:03.174Z,15.16
2023-03-21T20:57:30.628Z,15.14
2023-03-21T20:59:57.908Z,15.15
2023-03-21T21:02:25.400Z,15.16
2023-03-21T21:05:23.795Z,15.19
2023-03-21T21:07:42.851Z,15.13
2023-03-21T21:10:14.124Z,15.05
2023-03-21T21:12:45.081Z,15.08
2023-03-21T21:15:16.251Z,15.09
2023-03-21T21:18:04.840Z,15.02
2023-03-21T21:20:33.681Z,15.11
2023-03-21T21:23:01.267Z,15.05
2023-03-21T21:25:31.795Z,14.97
2023-03-21T21:27:59.226Z,14.97
2023-03-21T21:30:26.566Z,14.99
2023-03-21T21:32:54.008Z,14.77
2023-03-21T21:35:22.398Z,14.80
2023-03-21T21:37:51.174Z,14.89
2023-03-21T21:40:20.617Z,14.94
2023-03-21T21:42:48.209Z,14.89
2023-03-21T21:45:15.965Z,14.90
2023-03-21T21:47:44.787Z,14.88
2023-03-21T21:50:12.955Z,14.84
2023-03-21T21:52:43.622Z,14.86
2023-03-21T21:55:13.172Z,14.82
2023-03-21T21:57:40.913Z,14.77
2023-03-21T22:00:13.621Z,14.84
2023-03-21T22:02:41.930Z,14.53
2023-03-21T22:05:10.549Z,14.56
2023-03-21T22:07:39.065Z,14.58
2023-03-21T22:10:07.152Z,14.60
2023-03-21T22:12:34.872Z,14.54
2023-03-21T22:15:04.069Z,14.52
2023-03-21T22:17:31.780Z,14.56
2023-03-21T22:20:06.095Z,14.54
2023-03-21T22:22:34.904Z,14.59
2023-03-21T22:25:04.267Z,14.59
2023-03-21T22:27:31.921Z,14.55
2023-03-21T22:30:04.998Z,14.49
2023-03-21T22:32:37.989Z,14.53
2023-03-21T22:35:07.074Z,14.52
2023-03-21T22:37:36.435Z,14.48
2023-03-21T22:40:06.909Z,14.40
2023-03-21T22:42:35.221Z,14.41
2023-03-21T22:45:05.848Z,14.47
2023-03-21T22:47:33.756Z,14.41
2023-03-21T22:50:01.344Z,14.36
2023-03-21T22:52:28.773Z,14.36
2023-03-21T22:54:56.195Z,14.30
2023-03-21T22:57:23.681Z,14.21
2023-03-21T22:59:51.106Z,14.20
2023-03-21T23:02:19.702Z,14.20
2023-03-21T23:04:47.094Z,14.22
2023-03-21T23:07:14.660Z,14.18
2023-03-21T23:09:42.002Z,14.18
2023-03-21T23:12:09.525Z,14.12
2023-03-21T23:14:37.000Z,14.16
2023-03-21T23:17:04.453Z,14.18
2023-03-21T23:19:32.467Z,14.21
2023-03-21T23:21:59.801Z,14.17
2023-03-21T23:24:27.388Z,14.16
2023-03-21T23:26:54.963Z,14.11
2023-03-21T23:29:22.405Z,14.09
2023-03-21T23:31:49.827Z,14.12
2023-03-21T23:34:17.173Z,14.15
2023-03-21T23:36:44.587Z,14.06
2023-03-21T23:39:11.926Z,14.01
2023-03-21T23:41:39.278Z,14.08
2023-03-21T23:44:06.685Z,14.02
2023-03-21T23:46:34.208Z,14.01
2023-03-21T23:49:01.669Z,13.97
2023-03-21T23:51:29.114Z,13.99
2023-03-21T23:53:56.654Z,13.93
2023-03-21T23:56:26.590Z,13.85
2023-03-21T23:58:54.172Z,13.87
